Time;durP1;ratioP1;P1;durP2;ratioP2;P2;SDS_P1;SDS_P2;PMS_P1;PMS_P2;Temp;Humidity;BMP_temperature;BMP_pressure;BME280_temperature;BME280_humidity;BME280_pressure;Samples;Min_cycle;Max_cycle;Signal;HPM_P1;HPM_P2
2024/02/20 00:02:21;;;;;;;4.60;2.87;;;7.30;99.90;;;;;;5046636;28;20633;-78
2024/02/20 00:04:48;;;;;;;4.90;3.07;;;7.30;99.90;;;;;;5047422;28;20630;-78
2024/02/20 00:07:17;;;;;;;4.03;3.03;;;7.30;99.90;;;;;;5047183;28;20628;-78
2024/02/20 00:09:44;;;;;;;4.80;3.50;;;7.30;99.90;;;;;;5043880;28;20638;-78
2024/02/20 00:12:11;;;;;;;6.93;4.50;;;7.30;99.90;;;;;;5048956;28;20722;-78
2024/02/20 00:14:39;;;;;;;6.70;4.40;;;7.30;99.90;;;;;;5039265;28;20697;-78
2024/02/20 00:17:07;;;;;;;7.63;4.60;;;7.30;99.90;;;;;;5048228;28;20638;-78
2024/02/20 00:19:34;;;;;;;4.53;3.87;;;7.30;99.90;;;;;;5048204;28;20614;-78
2024/02/20 00:22:01;;;;;;;5.00;3.30;;;7.30;99.90;;;;;;5044226;28;20673;-78
2024/02/20 00:24:27;;;;;;;3.97;2.90;;;7.30;99.90;;;;;;5041553;28;20734;-78
2024/02/20 00:26:54;;;;;;;3.70;2.93;;;7.30;99.90;;;;;;5044171;28;20639;-79
2024/02/20 00:29:21;;;;;;;5.15;3.03;;;7.30;99.90;;;;;;5047362;28;20637;-78
2024/02/20 00:31:49;;;;;;;3.40;3.07;;;7.30;99.90;;;;;;5043316;28;20291;-78
2024/02/20 00:34:16;;;;;;;5.00;3.77;;;7.30;99.90;;;;;;5044215;28;21105;-78
2024/02/20 00:36:42;;;;;;;3.07;2.43;;;7.30;99.90;;;;;;5043573;28;20619;-78
2024/02/20 00:39:09;;;;;;;4.33;2.90;;;7.20;99.90;;;;;;5045989;28;21147;-78
2024/02/20 00:41:36;;;;;;;3.22;2.85;;;7.30;99.90;;;;;;5043864;28;20623;-78
2024/02/20 00:44:03;;;;;;;2.83;2.63;;;7.30;99.90;;;;;;5046731;28;20200;-78
2024/02/20 00:46:30;;;;;;;3.73;2.80;;;7.20;99.90;;;;;;5041184;28;20624;-78
2024/02/20 00:48:58;;;;;;;4.07;3.13;;;7.20;99.90;;;;;;5041547;28;20630;-78
2024/02/20 00:51:25;;;;;;;3.83;2.90;;;7.20;99.90;;;;;;5047474;28;20622;-78
2024/02/20 00:53:52;;;;;;;4.70;2.83;;;7.10;99.90;;;;;;5047530;28;21003;-78
2024/02/20 00:56:19;;;;;;;5.10;2.72;;;7.10;99.90;;;;;;5043521;28;20282;-78
2024/02/20 00:58:46;;;;;;;3.60;2.85;;;7.10;99.90;;;;;;5048112;28;20206;-78
2024/02/20 01:01:13;;;;;;;3.10;2.60;;;7.00;99.90;;;;;;5047487;28;20196;-77
2024/02/20 01:03:42;;;;;;;3.67;3.33;;;7.00;99.90;;;;;;5049955;28;20291;-78
2024/02/20 01:06:11;;;;;;;5.80;2.95;;;7.00;99.90;;;;;;5049217;28;20192;-79
2024/02/20 01:08:39;;;;;;;5.22;2.90;;;7.00;99.90;;;;;;5051064;28;20257;-78
2024/02/20 01:11:07;;;;;;;3.60;2.95;;;7.00;99.90;;;;;;5050497;28;20200;-78
2024/02/20 01:13:33;;;;;;;5.28;3.17;;;7.00;99.90;;;;;;5050422;28;20216;-78
2024/02/20 01:16:00;;;;;;;3.95;3.55;;;6.90;99.90;;;;;;5050617;28;20705;-78
2024/02/20 01:18:27;;;;;;;5.65;3.83;;;7.00;99.90;;;;;;5045827;28;20198;-78
2024/02/20 01:20:55;;;;;;;5.72;3.35;;;7.00;99.90;;;;;;5050939;28;20200;-78
2024/02/20 01:23:23;;;;;;;5.40;3.50;;;7.00;99.90;;;;;;5044310;28;20300;-78
2024/02/20 01:25:50;;;;;;;4.68;3.30;;;6.90;99.90;;;;;;5048875;28;20204;-78
2024/02/20 01:28:17;;;;;;;9.38;3.25;;;7.00;99.90;;;;;;5044815;28;20208;-78
2024/02/20 01:30:44;;;;;;;4.15;3.25;;;7.00;99.90;;;;;;5050083;28;20293;-78
2024/02/20 01:33:12;;;;;;;5.00;3.42;;;6.90;99.90;;;;;;5049836;28;20200;-78
2024/02/20 01:35:41;;;;;;;4.70;3.25;;;6.90;99.90;;;;;;5051111;28;20191;-78
2024/02/20 01:38:08;;;;;;;4.63;3.45;;;6.90;99.90;;;;;;5045854;28;20266;-78
2024/02/20 01:40:39;;;;;;;3.83;3.40;;;6.70;99.90;;;;;;5050641;28;20680;-78
2024/02/20 01:43:06;;;;;;;5.05;4.40;;;6.80;99.90;;;;;;5046427;28;20274;-78
2024/02/20 01:45:34;;;;;;;6.32;4.13;;;6.70;99.90;;;;;;5044736;28;20721;-79
2024/02/20 01:48:02;;;;;;;4.50;3.40;;;6.70;99.90;;;;;;5046183;28;20185;-78
2024/02/20 01:50:33;;;;;;;5.78;4.10;;;6.70;99.90;;;;;;5046934;28;20204;-78
2024/02/20 01:53:00;;;;;;;4.20;3.45;;;6.60;99.90;;;;;;5044029;28;20204;-79
2024/02/20 01:55:27;;;;;;;4.50;3.13;;;6.60;99.90;;;;;;5049921;28;20594;-78
2024/02/20 01:57:55;;;;;;;7.05;3.55;;;6.60;99.90;;;;;;5049514;28;20196;-78
2024/02/20 02:00:23;;;;;;;5.15;3.67;;;6.70;99.90;;;;;;5047808;28;20204;-78
2024/02/20 02:02:51;;;;;;;5.82;4.38;;;6.70;99.90;;;;;;5046546;28;20200;-78
2024/02/20 02:05:19;;;;;;;10.38;3.70;;;6.70;99.90;;;;;;5046590;28;20192;-78
2024/02/20 02:07:46;;;;;;;4.22;2.83;;;6.70;99.90;;;;;;5048773;28;20299;-79
2024/02/20 02:10:13;;;;;;;3.60;3.10;;;6.60;99.90;;;;;;5047972;28;20281;-78
2024/02/20 02:12:40;;;;;;;5.45;3.70;;;6.80;99.90;;;;;;5042633;28;20200;-79
2024/02/20 02:15:09;;;;;;;3.90;2.30;;;6.80;99.90;;;;;;5048382;28;20212;-78
2024/02/20 02:17:36;;;;;;;5.13;3.33;;;6.80;99.90;;;;;;5046827;28;20616;-78
2024/02/20 02:20:05;;;;;;;6.07;3.25;;;6.80;99.90;;;;;;5046775;28;20629;-78
2024/02/20 02:22:32;;;;;;;5.47;3.08;;;6.80;99.90;;;;;;5048811;28;20199;-79
2024/02/20 02:24:59;;;;;;;6.72;3.60;;;6.80;99.90;;;;;;5041540;28;20257;-79
2024/02/20 02:27:28;;;;;;;3.17;2.97;;;6.80;99.90;;;;;;5042165;28;20216;-78
2024/02/20 02:29:56;;;;;;;3.75;3.33;;;6.80;99.90;;;;;;5049173;28;20544;-78
2024/02/20 02:32:24;;;;;;;3.40;3.10;;;6.80;99.90;;;;;;5048633;28;20251;-78
2024/02/20 02:34:52;;;;;;;4.30;3.25;;;6.80;99.90;;;;;;5049203;28;20708;-78
2024/02/20 02:37:19;;;;;;;4.93;3.65;;;6.00;99.90;;;;;;5048852;28;20196;-78
2024/02/20 02:39:47;;;;;;;6.70;3.17;;;6.90;99.90;;;;;;5049604;28;20210;-78
2024/02/20 02:42:15;;;;;;;2.92;2.72;;;6.80;99.90;;;;;;5045146;28;20681;-78
2024/02/20 02:44:46;;;;;;;3.13;2.40;;;6.80;99.90;;;;;;5045990;28;20250;-78
2024/02/20 02:47:14;;;;;;;5.80;3.30;;;6.90;99.90;;;;;;5048405;28;20657;-78
2024/02/20 02:49:42;;;;;;;4.03;3.33;;;6.90;99.90;;;;;;5048824;28;20642;-78
2024/02/20 02:52:10;;;;;;;3.95;3.17;;;6.70;99.90;;;;;;5041904;28;20657;-77
2024/02/20 02:54:38;;;;;;;7.43;2.65;;;;;;;;;;5042974;28;20719;-78
2024/02/20 02:57:06;;;;;;;3.30;2.35;;;6.90;99.90;;;;;;5037569;28;20629;-77
2024/02/20 02:59:35;;;;;;;4.55;2.83;;;6.90;99.90;;;;;;5043736;28;20591;-78
2024/02/20 03:02:04;;;;;;;4.25;3.20;;;6.70;99.90;;;;;;5049393;28;20200;-78
2024/02/20 03:04:32;;;;;;;3.75;2.80;;;6.60;99.90;;;;;;5046342;28;20271;-78
2024/02/20 03:07:00;;;;;;;3.97;2.63;;;;;;;;;;5049334;28;20617;-78
2024/02/20 03:09:29;;;;;;;3.50;2.20;;;6.60;99.90;;;;;;5046512;28;20631;-78
2024/02/20 03:11:58;;;;;;;4.60;2.75;;;6.60;99.90;;;;;;5049284;28;20653;-77
2024/02/20 03:14:24;;;;;;;4.03;2.53;;;6.70;99.90;;;;;;5046445;28;20274;-78
2024/02/20 03:16:52;;;;;;;4.20;2.55;;;6.60;99.90;;;;;;5048863;28;20283;-78
2024/02/20 03:19:21;;;;;;;7.30;2.85;;;6.50;99.90;;;;;;5046391;28;20208;-78
2024/02/20 03:21:49;;;;;;;4.63;2.13;;;6.80;99.90;;;;;;5048642;28;20215;-78
2024/02/20 03:24:17;;;;;;;2.88;2.53;;;6.10;99.90;;;;;;5043111;28;20736;-79
2024/02/20 03:26:44;;;;;;;3.15;2.67;;;7.00;99.90;;;;;;5041961;28;20289;-78
2024/02/20 03:29:12;;;;;;;6.43;2.58;;;6.60;99.90;;;;;;5049036;28;20196;-78
2024/02/20 03:31:39;;;;;;;2.17;1.98;;;6.90;99.90;;;;;;5044332;28;20210;-79
2024/02/20 03:34:06;;;;;;;8.00;2.83;;;;;;;;;;5046637;28;20223;-79
2024/02/20 03:36:35;;;;;;;8.82;2.35;;;;;;;;;;5041632;28;20208;-78
2024/02/20 03:39:04;;;;;;;5.60;3.10;;;6.50;99.90;;;;;;5049319;28;20204;-80
2024/02/20 03:41:31;;;;;;;4.53;2.97;;;;;;;;;;5048569;28;20184;-79
2024/02/20 03:43:58;;;;;;;6.25;2.80;;;6.40;99.90;;;;;;5044916;28;20557;-79
2024/02/20 03:46:26;;;;;;;4.80;2.22;;;;;;;;;;5047748;28;20214;-79
2024/02/20 03:48:54;;;;;;;5.75;2.38;;;;;;;;;;5045141;28;20200;-79
2024/02/20 03:51:23;;;;;;;5.15;3.08;;;;;;;;;;5048776;28;20725;-79
2024/02/20 03:53:52;;;;;;;6.20;3.00;;;;;;;;;;5046969;28;20200;-79
2024/02/20 03:56:20;;;;;;;3.58;3.03;;;6.10;99.90;;;;;;5046929;28;20204;-78
2024/02/20 03:58:47;;;;;;;3.05;2.50;;;6.50;99.90;;;;;;5042303;28;20199;-79
2024/02/20 04:01:14;;;;;;;3.20;2.42;;;6.40;99.90;;;;;;5048576;28;20818;-79
2024/02/20 04:03:42;;;;;;;11.68;2.70;;;;;;;;;;5044867;28;20206;-78
2024/02/20 04:06:10;;;;;;;5.65;2.88;;;;;;;;;;5047774;28;20243;-79
2024/02/20 04:08:38;;;;;;;5.25;2.45;;;;;;;;;;5046642;28;20200;-79
2024/02/20 04:11:06;;;;;;;5.05;2.50;;;6.40;99.90;;;;;;5042098;28;20249;-78
2024/02/20 04:13:33;;;;;;;4.10;2.75;;;;;;;;;;5038907;28;20274;-79
2024/02/20 04:16:01;;;;;;;3.92;2.20;;;;;;;;;;5048688;28;20219;-79
2024/02/20 04:18:28;;;;;;;8.82;2.72;;;;;;;;;;5046818;28;20609;-79
2024/02/20 04:20:55;;;;;;;8.10;3.63;;;;;;;;;;5048008;28;20283;-78
2024/02/20 04:23:23;;;;;;;8.20;3.60;;;;;;;;;;5044388;28;20283;-78
2024/02/20 04:25:50;;;;;;;10.20;3.30;;;6.30;99.90;;;;;;5042639;28;20215;-78
2024/02/20 04:28:18;;;;;;;3.60;2.70;;;6.20;99.90;;;;;;5047941;28;20202;-78
2024/02/20 04:30:45;;;;;;;4.18;3.08;;;5.70;99.90;;;;;;5037299;28;20196;-78
2024/02/20 04:33:12;;;;;;;2.90;2.47;;;6.10;99.90;;;;;;5047544;28;20224;-78
2024/02/20 04:35:39;;;;;;;5.20;2.90;;;;;;;;;;5045544;28;20216;-78
2024/02/20 04:38:06;;;;;;;7.57;3.40;;;6.10;99.90;;;;;;5050697;28;20287;-78
2024/02/20 04:40:33;;;;;;;2.38;2.17;;;5.90;99.90;;;;;;5051079;28;20184;-78
2024/02/20 04:43:00;;;;;;;4.43;2.50;;;5.80;99.90;;;;;;5051348;28;20196;-78
2024/02/20 04:45:28;;;;;;;6.90;2.78;;;6.10;99.90;;;;;;5049819;28;20202;-78
2024/02/20 04:47:55;;;;;;;3.25;2.53;;;6.70;99.90;;;;;;5053165;28;20664;-78
2024/02/20 04:50:22;;;;;;;4.40;3.13;;;6.00;99.90;;;;;;5050043;28;20716;-78
2024/02/20 04:52:49;;;;;;;8.25;4.30;;;6.00;99.90;;;;;;5053909;28;20687;-79
2024/02/20 04:55:15;;;;;;;6.97;2.88;;;6.60;99.90;;;;;;5049243;28;20688;-78
2024/02/20 04:57:42;;;;;;;2.65;2.22;;;6.00;99.90;;;;;;5053258;28;20548;-78
2024/02/20 05:00:11;;;;;;;18.00;3.67;;;6.00;99.90;;;;;;5053142;28;20202;-78
2024/02/20 05:02:40;;;;;;;5.22;2.38;;;6.00;99.90;;;;;;5050928;28;20200;-79
2024/02/20 05:05:08;;;;;;;4.43;2.40;;;6.00;99.90;;;;;;5043680;28;20196;-78
2024/02/20 05:07:34;;;;;;;14.63;4.07;;;6.00;99.90;;;;;;5051157;28;20192;-78
2024/02/20 05:10:01;;;;;;;6.18;2.97;;;5.90;99.90;;;;;;5051386;28;20208;-78
2024/02/20 05:12:28;;;;;;;9.32;2.60;;;6.00;99.90;;;;;;5050364;28;20204;-78
2024/02/20 05:14:55;;;;;;;5.20;2.13;;;6.20;99.90;;;;;;5049756;28;20218;-78
2024/02/20 05:17:21;;;;;;;5.57;2.92;;;5.90;99.90;;;;;;5049953;28;20208;-78
2024/02/20 05:19:50;;;;;;;4.20;2.25;;;5.70;99.90;;;;;;5049960;28;20196;-78
2024/02/20 05:22:19;;;;;;;7.47;2.35;;;;;;;;;;5050030;28;20564;-78
2024/02/20 05:24:46;;;;;;;6.82;3.47;;;5.80;99.90;;;;;;5050779;28;20196;-78
2024/02/20 05:27:13;;;;;;;3.35;2.22;;;5.90;99.90;;;;;;5046411;28;20243;-77
2024/02/20 05:29:40;;;;;;;8.35;2.33;;;5.90;99.90;;;;;;5050368;28;20286;-78
2024/02/20 05:32:07;;;;;;;3.30;1.88;;;5.90;99.90;;;;;;5047325;28;20201;-78
2024/02/20 05:34:34;;;;;;;7.85;2.55;;;5.90;99.90;;;;;;5049595;28;20278;-77
2024/02/20 05:37:02;;;;;;;9.80;2.38;;;6.00;99.90;;;;;;5050894;28;20202;-78
2024/02/20 05:39:29;;;;;;;7.57;3.20;;;5.90;99.90;;;;;;5051122;28;20547;-78
2024/02/20 05:41:56;;;;;;;3.85;2.70;;;5.90;99.90;;;;;;5047247;28;20196;-78
2024/02/20 05:44:23;;;;;;;6.25;2.65;;;5.90;99.90;;;;;;5047302;28;20653;-78
2024/02/20 05:46:50;;;;;;;7.78;2.85;;;5.90;99.90;;;;;;5046464;28;20224;-78
2024/02/20 05:49:17;;;;;;;11.32;3.00;;;5.90;99.90;;;;;;5048406;28;20211;-78
2024/02/20 05:51:45;;;;;;;7.78;3.55;;;6.40;99.90;;;;;;5050867;28;20195;-78
2024/02/20 05:54:13;;;;;;;8.52;2.53;;;6.00;99.90;;;;;;5044145;28;20192;-79
2024/02/20 05:56:42;;;;;;;5.53;2.20;;;5.80;99.90;;;;;;5049302;28;20235;-78
2024/02/20 05:59:08;;;;;;;12.15;2.50;;;6.80;99.90;;;;;;5048902;28;20207;-78
2024/02/20 06:01:35;;;;;;;4.00;2.38;;;5.90;99.90;;;;;;5042097;28;20202;-79
2024/02/20 06:04:04;;;;;;;4.03;1.95;;;5.90;99.90;;;;;;5046676;28;20209;-78
2024/02/20 06:06:31;;;;;;;6.07;3.03;;;5.90;99.90;;;;;;5049348;28;20657;-78
2024/02/20 06:08:58;;;;;;;7.53;2.17;;;5.90;99.90;;;;;;5049721;28;20226;-78
2024/02/20 06:11:27;;;;;;;5.90;2.47;;;5.90;99.90;;;;;;5049402;28;20733;-78
2024/02/20 06:13:53;;;;;;;3.15;1.90;;;5.90;99.90;;;;;;5048344;28;20215;-78
2024/02/20 06:16:21;;;;;;;5.88;2.85;;;6.40;99.90;;;;;;5048714;28;20224;-78
2024/02/20 06:18:48;;;;;;;4.63;2.58;;;6.40;99.90;;;;;;5049725;28;20235;-78
2024/02/20 06:21:15;;;;;;;5.60;2.45;;;6.90;99.90;;;;;;5042411;28;20207;-78
2024/02/20 06:23:43;;;;;;;3.20;2.85;;;5.70;99.90;;;;;;5048012;28;20205;-79
2024/02/20 06:26:09;;;;;;;9.57;2.88;;;6.30;99.90;;;;;;5049507;28;20195;-78
2024/02/20 06:28:38;;;;;;;2.63;2.15;;;5.60;99.90;;;;;;5049693;28;20210;-78
2024/02/20 06:31:06;;;;;;;6.05;2.67;;;5.90;99.90;;;;;;5045898;28;20226;-79
2024/02/20 06:33:33;;;;;;;9.15;2.42;;;5.80;99.90;;;;;;5049280;28;20242;-80
2024/02/20 06:36:00;;;;;;;3.25;2.08;;;7.10;99.90;;;;;;5049211;28;20230;-79
2024/02/20 06:38:31;;;;;;;4.57;2.35;;;5.80;99.90;;;;;;5049654;28;20299;-79
2024/02/20 06:40:58;;;;;;;5.53;2.15;;;5.90;99.90;;;;;;5045562;28;20192;-79
2024/02/20 06:43:25;;;;;;;10.73;2.50;;;5.90;99.90;;;;;;5044903;28;20200;-79
2024/02/20 06:45:53;;;;;;;6.07;2.60;;;6.00;99.90;;;;;;5043879;28;20274;-79
2024/02/20 06:48:21;;;;;;;5.55;2.70;;;6.60;99.90;;;;;;5048678;28;20624;-79
2024/02/20 06:50:48;;;;;;;5.63;2.60;;;6.80;99.90;;;;;;5044004;28;20315;-79
2024/02/20 06:53:14;;;;;;;4.85;2.40;;;6.00;99.90;;;;;;5049628;28;20203;-79
2024/02/20 06:55:41;;;;;;;10.52;2.20;;;;;;;;;;5043927;28;20224;-79
2024/02/20 06:58:09;;;;;;;3.65;2.15;;;;;;;;;;5049395;28;20223;-80
2024/02/20 07:00:37;;;;;;;8.50;2.38;;;6.00;99.90;;;;;;5043068;28;20211;-79
2024/02/20 07:03:05;;;;;;;4.60;2.20;;;5.80;99.90;;;;;;5042244;28;20192;-79
2024/02/20 07:05:32;;;;;;;8.23;3.13;;;6.00;99.90;;;;;;5048535;28;20279;-79
2024/02/20 07:08:00;;;;;;;6.10;4.43;;;5.90;99.90;;;;;;5047027;28;20289;-80
2024/02/20 07:10:27;;;;;;;9.18;3.63;;;5.60;99.90;;;;;;5042682;28;20192;-79
2024/02/20 07:12:55;;;;;;;5.07;3.45;;;6.50;99.90;;;;;;5048056;28;20578;-80
2024/02/20 07:15:23;;;;;;;5.55;2.67;;;6.00;99.90;;;;;;5048357;28;20303;-80
2024/02/20 07:17:50;;;;;;;6.63;3.40;;;6.00;99.90;;;;;;5041747;28;20629;-79
2024/02/20 07:20:18;;;;;;;5.00;2.50;;;6.00;99.90;;;;;;5044279;28;20210;-79
2024/02/20 07:22:45;;;;;;;5.20;2.72;;;5.90;99.90;;;;;;5048599;28;20207;-79
2024/02/20 07:25:12;;;;;;;3.95;2.00;;;6.00;99.90;;;;;;5044276;28;20552;-79
2024/02/20 07:27:39;;;;;;;3.40;2.60;;;;;;;;;;5048831;28;20208;-79
2024/02/20 07:30:10;;;;;;;6.05;2.90;;;6.00;99.90;;;;;;5048243;28;20646;-79
2024/02/20 07:32:39;;;;;;;7.75;3.20;;;6.10;99.90;;;;;;5034410;28;20565;-79
2024/02/20 07:35:09;;;;;;;4.50;2.40;;;6.10;99.90;;;;;;5048001;28;20188;-78
2024/02/20 07:37:38;;;;;;;6.00;2.40;;;6.10;99.90;;;;;;5045173;28;20577;-79
2024/02/20 07:40:06;;;;;;;4.85;2.20;;;6.20;99.90;;;;;;5047271;28;20662;-78
2024/02/20 07:42:32;;;;;;;7.22;2.40;;;5.90;99.90;;;;;;5047926;28;20204;-78
2024/02/20 07:45:00;;;;;;;4.95;2.53;;;;;;;;;;5048010;28;20203;-78
2024/02/20 07:47:26;;;;;;;6.72;2.63;;;6.20;99.90;;;;;;5047283;28;20295;-78
2024/02/20 07:49:53;;;;;;;7.00;2.67;;;;;;;;;;5045719;28;20210;-78
2024/02/20 07:52:20;;;;;;;4.35;2.55;;;6.50;99.90;;;;;;5046880;28;20303;-78
2024/02/20 07:54:48;;;;;;;6.10;2.60;;;6.30;99.90;;;;;;5047124;28;20200;-78
2024/02/20 07:57:15;;;;;;;7.00;2.63;;;6.50;99.90;;;;;;5048093;28;20511;-78
2024/02/20 07:59:42;;;;;;;5.75;2.20;;;6.40;99.90;;;;;;5047844;28;20623;-78
2024/02/20 08:02:09;;;;;;;8.13;3.10;;;6.50;99.90;;;;;;5041835;28;20205;-78
2024/02/20 08:04:36;;;;;;;3.60;2.05;;;6.60;99.90;;;;;;5041505;28;20192;-78
2024/02/20 08:07:02;;;;;;;5.47;1.90;;;6.50;99.90;;;;;;5044349;28;20196;-78
2024/02/20 08:09:29;;;;;;;7.32;1.95;;;6.50;99.90;;;;;;5047245;28;21198;-78
2024/02/20 08:11:57;;;;;;;5.55;2.88;;;6.70;99.90;;;;;;5048960;28;20204;-78
2024/02/20 08:14:25;;;;;;;4.30;3.58;;;6.40;99.90;;;;;;5043827;28;20199;-79
2024/02/20 08:16:52;;;;;;;3.50;3.10;;;6.60;99.90;;;;;;5048249;28;20224;-78
2024/02/20 08:19:19;;;;;;;5.50;2.60;;;6.60;99.90;;;;;;5048665;28;20235;-78
2024/02/20 08:21:45;;;;;;;7.18;2.40;;;7.30;99.90;;;;;;5046090;28;20282;-78
2024/02/20 08:24:12;;;;;;;3.78;2.50;;;6.60;99.90;;;;;;5050120;28;20202;-78
2024/02/20 08:26:39;;;;;;;4.28;2.28;;;6.60;99.90;;;;;;5052100;28;20207;-78
2024/02/20 08:29:08;;;;;;;5.72;2.03;;;6.70;99.90;;;;;;5050201;28;20208;-78
2024/02/20 08:31:35;;;;;;;10.55;3.55;;;6.50;99.90;;;;;;5046035;28;20196;-79
2024/02/20 08:34:02;;;;;;;5.82;2.70;;;7.00;99.90;;;;;;5048270;28;20211;-78
2024/02/20 08:36:30;;;;;;;4.60;2.55;;;6.70;99.90;;;;;;5048935;28;20227;-78
2024/02/20 08:38:56;;;;;;;8.90;3.07;;;7.10;99.90;;;;;;5046560;28;20289;-79
2024/02/20 08:41:23;;;;;;;7.63;3.35;;;7.30;99.90;;;;;;5047217;28;20627;-78
2024/02/20 08:43:51;;;;;;;9.75;2.55;;;6.90;99.90;;;;;;5050346;28;20200;-78
2024/02/20 08:46:19;;;;;;;5.10;2.63;;;7.10;99.90;;;;;;5051101;28;20303;-79
2024/02/20 08:48:46;;;;;;;6.40;3.20;;;7.20;99.90;;;;;;5050214;28;20628;-79
2024/02/20 08:51:14;;;;;;;9.10;2.77;;;7.80;99.90;;;;;;5051033;28;20651;-79
2024/02/20 08:53:41;;;;;;;9.07;2.63;;;7.20;99.90;;;;;;5049646;28;20759;-78
2024/02/20 08:56:08;;;;;;;4.60;2.70;;;7.30;99.90;;;;;;5045917;28;20669;-79
2024/02/20 08:58:34;;;;;;;7.90;3.03;;;7.20;99.90;;;;;;5051111;28;20628;-78
2024/02/20 09:01:01;;;;;;;9.30;3.07;;;7.20;99.90;;;;;;5049381;28;20632;-79
2024/02/20 09:03:30;;;;;;;4.17;2.20;;;7.30;99.90;;;;;;5049943;28;20625;-78
2024/02/20 09:05:56;;;;;;;6.77;2.77;;;7.70;99.90;;;;;;5048889;28;20626;-79
2024/02/20 09:08:23;;;;;;;10.23;3.43;;;7.40;99.90;;;;;;5051188;28;20630;-79
2024/02/20 09:10:50;;;;;;;7.67;3.47;;;7.40;99.90;;;;;;5049208;28;20642;-78
2024/02/20 09:13:17;;;;;;;7.60;3.27;;;7.30;99.90;;;;;;5048208;28;20622;-78
2024/02/20 09:15:44;;;;;;;4.27;3.20;;;7.30;99.90;;;;;;5050672;28;20630;-78
2024/02/20 09:18:11;;;;;;;7.23;3.20;;;7.20;99.90;;;;;;5049592;28;20634;-78
2024/02/20 09:20:39;;;;;;;6.90;3.27;;;7.30;99.90;;;;;;5044694;28;20627;-79
2024/02/20 09:23:06;;;;;;;8.93;3.67;;;8.20;99.90;;;;;;5050639;28;20627;-79
2024/02/20 09:25:33;;;;;;;9.07;3.20;;;7.50;99.90;;;;;;5044546;28;20633;-79
2024/02/20 09:27:59;;;;;;;17.37;3.50;;;7.60;99.90;;;;;;5049278;28;20733;-79
2024/02/20 09:30:26;;;;;;;10.07;3.90;;;7.90;99.90;;;;;;5050014;28;20640;-78
2024/02/20 09:32:53;;;;;;;4.80;3.07;;;7.70;99.90;;;;;;5051508;28;21224;-78
2024/02/20 09:35:20;;;;;;;8.37;3.70;;;8.00;99.90;;;;;;5050220;28;20626;-78
2024/02/20 09:37:48;;;;;;;5.97;2.97;;;8.00;99.90;;;;;;5050900;28;20974;-78
2024/02/20 09:40:17;;;;;;;7.77;2.97;;;8.00;99.90;;;;;;5049732;28;20682;-79
2024/02/20 09:42:48;;;;;;;8.67;2.73;;;8.00;99.90;;;;;;5046479;28;21075;-79
2024/02/20 09:45:19;;;;;;;8.13;3.03;;;8.10;99.90;;;;;;5049637;28;20641;-78
2024/02/20 09:47:47;;;;;;;8.17;3.37;;;8.10;99.90;;;;;;5043703;28;20630;-78
2024/02/20 09:50:17;;;;;;;11.03;3.13;;;8.70;99.90;;;;;;5049739;28;20622;-78
2024/02/20 09:52:48;;;;;;;7.77;2.10;;;8.00;99.90;;;;;;5048713;28;20659;-78
2024/02/20 09:55:18;;;;;;;8.90;3.53;;;8.30;99.90;;;;;;5046340;28;20632;-78
2024/02/20 09:57:45;;;;;;;6.20;2.43;;;8.30;99.90;;;;;;5050457;28;21238;-79
2024/02/20 10:00:13;;;;;;;6.97;2.93;;;8.30;99.90;;;;;;5047695;28;20996;-78
2024/02/20 10:02:43;;;;;;;13.23;3.63;;;8.20;99.90;;;;;;5050316;28;21189;-78
2024/02/20 10:05:13;;;;;;;8.80;3.00;;;8.20;99.90;;;;;;5049003;28;21214;-79
2024/02/20 10:07:40;;;;;;;6.47;3.53;;;8.30;99.90;;;;;;5042775;28;20721;-78
2024/02/20 10:10:11;;;;;;;7.17;3.73;;;8.40;99.90;;;;;;5046066;28;20703;-79
2024/02/20 10:12:39;;;;;;;6.90;3.40;;;8.10;99.90;;;;;;5046096;28;20622;-78
2024/02/20 10:15:07;;;;;;;3.50;3.07;;;8.30;99.90;;;;;;5043872;28;20680;-78
2024/02/20 10:17:34;;;;;;;5.83;2.97;;;8.20;99.90;;;;;;5050168;28;20672;-78
2024/02/20 10:20:06;;;;;;;9.50;2.20;;;8.30;99.90;;;;;;5043358;28;20637;-78
2024/02/20 10:22:33;;;;;;;10.03;2.20;;;8.30;99.90;;;;;;5050542;28;21070;-79
2024/02/20 10:25:12;;;;;;;8.00;3.00;;;8.20;99.90;;;;;;5049084;28;20662;-78
2024/02/20 10:27:39;;;;;;;4.80;2.93;;;8.20;99.90;;;;;;5049818;28;20630;-79
2024/02/20 10:30:08;;;;;;;7.13;3.03;;;8.30;99.90;;;;;;5046578;28;20726;-79
2024/02/20 10:32:36;;;;;;;6.80;2.80;;;8.50;99.90;;;;;;5049670;28;21185;-78
2024/02/20 10:35:04;;;;;;;6.43;2.27;;;8.50;99.70;;;;;;5046574;28;20630;-78
2024/02/20 10:37:31;;;;;;;7.03;2.83;;;8.60;99.60;;;;;;5049109;28;21011;-78
2024/02/20 10:40:06;;;;;;;3.77;2.40;;;8.70;99.70;;;;;;5049625;28;20733;-78
2024/02/20 10:42:35;;;;;;;9.30;2.60;;;8.80;99.40;;;;;;5045988;28;20671;-78
2024/02/20 10:45:08;;;;;;;6.10;2.40;;;8.90;99.30;;;;;;5039706;28;20611;-78
2024/02/20 10:47:37;;;;;;;6.30;3.07;;;8.80;98.10;;;;;;5048909;28;20729;-78
2024/02/20 10:50:07;;;;;;;10.47;4.77;;;8.70;98.60;;;;;;5047705;28;21053;-78
2024/02/20 10:52:35;;;;;;;6.60;2.37;;;8.60;97.40;;;;;;5048996;28;20645;-78
2024/02/20 10:55:06;;;;;;;2.07;1.83;;;8.50;98.30;;;;;;5045150;28;20645;-78
2024/02/20 10:57:35;;;;;;;10.50;2.47;;;8.30;98.00;;;;;;5048989;28;20693;-78
2024/02/20 11:00:07;;;;;;;5.80;2.27;;;8.30;97.60;;;;;;5043836;28;20700;-78
2024/02/20 11:02:34;;;;;;;6.60;2.27;;;8.30;98.20;;;;;;5048797;28;20622;-78
2024/02/20 11:05:01;;;;;;;6.47;2.47;;;8.50;99.90;;;;;;5044553;28;20734;-78
2024/02/20 11:07:29;;;;;;;5.70;2.67;;;8.40;98.10;;;;;;5048295;28;20623;-78
2024/02/20 11:10:07;;;;;;;7.10;2.73;;;8.30;99.90;;;;;;5041987;28;21163;-78
2024/02/20 11:12:35;;;;;;;6.37;3.97;;;8.50;97.60;;;;;;5049170;28;20630;-79
2024/02/20 11:15:11;;;;;;;3.00;1.93;;;8.70;99.90;;;;;;5041905;28;20632;-79
2024/02/20 11:17:39;;;;;;;7.20;2.50;;;8.90;96.60;;;;;;5044469;28;20663;-78
2024/02/20 11:20:08;;;;;;;7.60;3.47;;;8.90;96.20;;;;;;5048472;28;20722;-78
2024/02/20 11:22:35;;;;;;;3.40;2.70;;;8.90;99.90;;;;;;5047681;28;20629;-78
2024/02/20 11:25:09;;;;;;;8.70;2.10;;;8.80;99.90;;;;;;5045905;28;20635;-78
2024/02/20 11:27:45;;;;;;;8.80;2.73;;;8.90;96.50;;;;;;5048754;28;20636;-79
2024/02/20 11:30:20;;;;;;;5.17;2.00;;;8.80;96.30;;;;;;5044863;28;21385;-78
2024/02/20 11:32:48;;;;;;;3.43;1.87;;;8.80;96.40;;;;;;5048632;28;20623;-79
2024/02/20 11:35:24;;;;;;;3.13;2.67;;;8.70;96.30;;;;;;5040868;28;21291;-78
2024/02/20 11:37:53;;;;;;;3.30;2.30;;;8.70;96.70;;;;;;5045337;28;20663;-78
2024/02/20 11:40:24;;;;;;;7.40;2.30;;;8.80;96.70;;;;;;5045022;28;21167;-78
2024/02/20 11:42:55;;;;;;;6.33;2.50;;;8.80;96.50;;;;;;5048909;28;20738;-78
2024/02/20 11:45:24;;;;;;;5.20;2.20;;;8.70;95.60;;;;;;5042127;28;20642;-77
2024/02/20 11:48:01;;;;;;;8.87;2.50;;;8.60;95.70;;;;;;5047327;28;20630;-78
2024/02/20 11:50:28;;;;;;;7.70;2.20;;;8.60;96.10;;;;;;5042467;28;21062;-79
2024/02/20 11:52:59;;;;;;;9.47;2.83;;;8.60;95.00;;;;;;5047303;28;20677;-78
2024/02/20 11:55:26;;;;;;;3.40;2.00;;;8.60;95.00;;;;;;5043260;28;21184;-78
2024/02/20 11:57:54;;;;;;;6.43;2.10;;;8.50;95.20;;;;;;5047832;28;20986;-78
2024/02/20 12:00:22;;;;;;;4.67;2.07;;;8.50;95.50;;;;;;5047887;28;21194;-78
2024/02/20 12:02:50;;;;;;;3.57;2.30;;;8.50;95.80;;;;;;5047898;28;20684;-78
2024/02/20 12:05:24;;;;;;;6.13;3.30;;;8.40;95.90;;;;;;5044284;28;20631;-78
2024/02/20 12:07:51;;;;;;;4.30;2.97;;;8.40;96.60;;;;;;5042554;28;20634;-78
2024/02/20 12:10:18;;;;;;;3.63;1.97;;;8.40;96.30;;;;;;5042879;28;20619;-78
2024/02/20 12:12:45;;;;;;;3.67;2.30;;;8.30;95.60;;;;;;5047143;28;20682;-78
2024/02/20 12:15:15;;;;;;;3.17;2.07;;;8.30;96.10;;;;;;5042375;28;20639;-78
2024/02/20 12:17:42;;;;;;;7.50;2.50;;;8.40;96.60;;;;;;5036804;28;20694;-78
2024/02/20 12:20:11;;;;;;;2.37;1.80;;;8.40;95.80;;;;;;5042695;28;21055;-79
2024/02/20 12:22:38;;;;;;;4.60;1.90;;;8.40;96.00;;;;;;5047412;28;21050;-79
2024/02/20 12:25:07;;;;;;;3.60;2.07;;;8.40;95.20;;;;;;5034403;28;20627;-79
2024/02/20 12:27:34;;;;;;;4.73;1.30;;;8.40;94.90;;;;;;5044777;28;20704;-78
2024/02/20 12:30:01;;;;;;;2.33;2.00;;;9.40;95.60;;;;;;5047884;28;20725;-78
2024/02/20 12:32:29;;;;;;;3.83;1.93;;;8.50;94.40;;;;;;5047291;28;20631;-78
2024/02/20 12:34:57;;;;;;;2.87;1.93;;;8.60;94.50;;;;;;5047512;28;20734;-78
2024/02/20 12:37:24;;;;;;;5.97;2.03;;;8.70;99.90;;;;;;5042737;28;20667;-79
2024/02/20 12:39:52;;;;;;;1.90;1.80;;;8.70;93.90;;;;;;5047993;28;20630;-79
2024/02/20 12:42:19;;;;;;;5.03;1.97;;;8.60;99.00;;;;;;5047085;28;20628;-79
2024/02/20 12:44:47;;;;;;;2.93;2.00;;;8.80;94.50;;;;;;5040593;28;20722;-79
2024/02/20 12:47:14;;;;;;;5.80;2.30;;;9.00;95.20;;;;;;5042044;28;20649;-78
2024/02/20 12:49:42;;;;;;;2.73;1.93;;;9.10;94.40;;;;;;5047247;28;20974;-78
2024/02/20 12:52:09;;;;;;;5.27;1.97;;;9.10;99.90;;;;;;5047241;28;20618;-79
2024/02/20 12:54:37;;;;;;;3.07;2.30;;;9.10;94.90;;;;;;5041833;28;20631;-78
2024/02/20 12:57:05;;;;;;;8.37;3.07;;;9.00;94.60;;;;;;5043956;28;20732;-78
2024/02/20 12:59:33;;;;;;;5.77;1.93;;;8.80;93.60;;;;;;5043963;28;21278;-79
2024/02/20 13:02:00;;;;;;;3.93;2.53;;;8.70;93.70;;;;;;5051504;28;20645;-79
2024/02/20 13:04:27;;;;;;;8.03;1.83;;;8.70;94.20;;;;;;5050550;28;21164;-78
2024/02/20 13:06:55;;;;;;;7.10;2.27;;;8.60;93.90;;;;;;5051258;28;20630;-78